createdAt,value
2019-06-01T00:02:38.719Z,10.27
2019-06-01T00:05:35.246Z,8.90
2019-06-01T00:08:31.774Z,9.63
2019-06-01T00:11:27.397Z,9.17
2019-06-01T00:14:23.580Z,9.77
2019-06-01T00:17:19.191Z,9.47
2019-06-01T00:20:14.654Z,9.40
2019-06-01T00:23:10.096Z,9.40
2019-06-01T00:26:06.241Z,10.90
2019-06-01T00:29:01.481Z,10.60
2019-06-01T00:31:57.973Z,9.97
2019-06-01T00:34:55.210Z,9.30
2019-06-01T00:37:51.810Z,9.53
2019-06-01T00:40:48.023Z,9.40
2019-06-01T00:43:44.781Z,9.83
2019-06-01T00:46:43.023Z,10.57
2019-06-01T00:49:41.110Z,9.67
2019-06-01T00:52:37.493Z,10.27
2019-06-01T00:55:33.731Z,9.53
2019-06-01T00:58:30.259Z,10.10
2019-06-01T01:01:25.898Z,9.70
2019-06-01T01:04:24.325Z,9.33
2019-06-01T01:07:21.020Z,9.33
2019-06-01T01:10:17.312Z,9.20
2019-06-01T01:13:16.291Z,10.27
2019-06-01T01:16:12.679Z,9.53
2019-06-01T01:19:08.404Z,9.53
2019-06-01T01:22:06.312Z,10.13
2019-06-01T01:25:05.959Z,9.50
2019-06-01T01:28:02.637Z,9.77
2019-06-01T01:31:12.328Z,9.40
2019-06-01T01:33:58.224Z,8.10
2019-06-01T01:36:54.307Z,8.37
2019-06-01T01:39:50.279Z,8.30
2019-06-01T01:42:46.499Z,8.33
2019-06-01T01:45:42.399Z,8.17
2019-06-01T01:48:37.887Z,8.43
2019-06-01T01:51:33.950Z,8.07
2019-06-01T01:54:30.329Z,8.43
2019-06-01T01:57:25.875Z,9.17
2019-06-01T02:00:41.630Z,8.57
2019-06-01T02:03:36.915Z,8.40
2019-06-01T02:06:32.370Z,8.57
2019-06-01T02:09:28.578Z,8.17
2019-06-01T02:12:24.469Z,8.23
2019-06-01T02:15:20.096Z,8.63
2019-06-01T02:18:16.452Z,8.30
2019-06-01T02:21:14.181Z,8.37
2019-06-01T02:24:10.859Z,7.40
2019-06-01T02:27:06.713Z,8.53
2019-06-01T02:30:05.630Z,8.30
2019-06-01T02:33:02.444Z,7.60
2019-06-01T02:36:00.454Z,7.77
2019-06-01T02:38:56.538Z,7.33
2019-06-01T02:41:56.803Z,7.73
2019-06-01T02:44:55.095Z,7.30
2019-06-01T02:47:51.018Z,6.77
2019-06-01T02:50:46.628Z,7.50
2019-06-01T02:53:42.965Z,7.63
2019-06-01T02:56:38.709Z,7.20
2019-06-01T02:59:35.088Z,6.93
2019-06-01T03:02:32.328Z,7.47
2019-06-01T03:05:28.983Z,7.67
2019-06-01T03:08:25.922Z,7.50
2019-06-01T03:11:26.025Z,7.10
2019-06-01T03:14:23.232Z,6.80
2019-06-01T03:17:26.783Z,7.13
2019-06-01T03:20:23.196Z,7.00
2019-06-01T03:23:21.076Z,7.23
2019-06-01T03:26:20.642Z,6.70
2019-06-01T03:29:20.644Z,7.37
2019-06-01T03:32:34.099Z,6.50
2019-06-01T03:35:15.378Z,6.03
2019-06-01T03:38:11.144Z,7.63
2019-06-01T03:41:08.241Z,6.30
2019-06-01T03:44:06.925Z,6.60
2019-06-01T03:47:03.648Z,7.27
2019-06-01T03:50:00.864Z,6.40
2019-06-01T03:52:57.032Z,6.20
2019-06-01T03:55:53.602Z,5.90
2019-06-01T03:58:49.756Z,6.17
2019-06-01T04:01:47.188Z,5.93
2019-06-01T04:04:43.330Z,5.83
2019-06-01T04:07:40.300Z,6.10
2019-06-01T04:10:40.633Z,6.20
2019-06-01T04:13:35.981Z,5.00
2019-06-01T04:16:32.356Z,5.50
2019-06-01T04:19:27.746Z,5.60
2019-06-01T04:22:24.215Z,5.40
2019-06-01T04:25:21.244Z,5.90
2019-06-01T04:28:17.522Z,5.43
2019-06-01T04:31:13.929Z,5.63
2019-06-01T04:34:10.986Z,6.37
2019-06-01T04:37:09.114Z,6.40
2019-06-01T04:40:05.452Z,5.40
2019-06-01T04:43:01.082Z,5.60
2019-06-01T04:45:59.161Z,5.10
2019-06-01T04:48:54.793Z,5.80
2019-06-01T04:51:51.229Z,5.10
2019-06-01T04:54:48.053Z,4.80
2019-06-01T04:57:53.086Z,4.87
2019-06-01T05:00:49.763Z,5.23
2019-06-01T05:03:45.557Z,4.80
2019-06-01T05:06:41.574Z,5.37
2019-06-01T05:09:38.249Z,5.40
2019-06-01T05:12:34.505Z,5.07
2019-06-01T05:15:30.177Z,5.07
2019-06-01T05:18:26.959Z,5.30
2019-06-01T05:21:23.555Z,4.57
2019-06-01T05:24:19.667Z,4.60
2019-06-01T05:27:20.108Z,5.10
2019-06-01T05:30:17.662Z,4.90
2019-06-01T05:33:29.284Z,5.20
2019-06-01T05:36:14.323Z,5.30
2019-06-01T05:39:16.451Z,5.20
2019-06-01T05:42:13.069Z,4.60
2019-06-01T05:45:11.277Z,5.00
2019-06-01T05:48:08.172Z,4.70
2019-06-01T05:51:04.612Z,4.97
2019-06-01T05:53:59.994Z,5.17
2019-06-01T05:56:57.706Z,5.03
2019-06-01T05:59:55.402Z,5.17
2019-06-01T06:02:52.038Z,5.10
2019-06-01T06:05:48.303Z,4.73
2019-06-01T06:08:44.682Z,4.67
2019-06-01T06:11:40.796Z,4.67
2019-06-01T06:14:36.617Z,4.77
2019-06-01T06:17:34.111Z,4.53
2019-06-01T06:20:30.726Z,5.40
2019-06-01T06:23:27.399Z,5.40
2019-06-01T06:26:25.258Z,5.13
2019-06-01T06:29:20.986Z,4.73
2019-06-01T06:32:19.246Z,5.00
2019-06-01T06:35:15.521Z,4.40
2019-06-01T06:38:11.734Z,5.10
2019-06-01T06:41:08.228Z,5.13
2019-06-01T06:44:08.083Z,5.10
2019-06-01T06:47:05.631Z,5.90
2019-06-01T06:50:03.578Z,5.50
2019-06-01T06:53:00.276Z,5.10
2019-06-01T06:55:55.610Z,5.33
2019-06-01T06:58:53.357Z,4.37
2019-06-01T07:01:49.980Z,4.97
2019-06-01T07:04:46.811Z,4.57
2019-06-01T07:07:43.158Z,4.77
2019-06-01T07:10:38.726Z,5.00
2019-06-01T07:13:35.319Z,4.70
2019-06-01T07:16:31.863Z,4.60
2019-06-01T07:19:28.023Z,4.67
2019-06-01T07:22:23.847Z,5.17
2019-06-01T07:25:21.728Z,5.20
2019-06-01T07:28:19.915Z,4.30
2019-06-01T07:31:16.142Z,4.27
2019-06-01T07:34:29.433Z,4.73
2019-06-01T07:37:10.765Z,4.50
2019-06-01T07:40:07.180Z,3.97
2019-06-01T07:43:03.320Z,4.00
2019-06-01T07:46:01.774Z,3.63
2019-06-01T07:48:59.698Z,3.70
2019-06-01T07:51:55.399Z,3.63
2019-06-01T07:54:59.831Z,3.10
2019-06-01T07:57:56.236Z,3.60
2019-06-01T08:00:55.774Z,3.53
2019-06-01T08:03:51.607Z,3.10
2019-06-01T08:06:57.790Z,2.90
2019-06-01T08:09:53.482Z,3.00
2019-06-01T08:12:50.881Z,2.67
2019-06-01T08:15:56.414Z,2.97
2019-06-01T08:18:54.265Z,2.93
2019-06-01T08:21:50.800Z,2.87
2019-06-01T08:24:46.909Z,2.97
2019-06-01T08:27:43.303Z,3.10
2019-06-01T08:30:42.893Z,3.13
2019-06-01T08:33:39.212Z,3.20
2019-06-01T08:36:34.504Z,2.77
2019-06-01T08:39:31.400Z,1.93
2019-06-01T08:42:29.579Z,2.00
2019-06-01T08:45:27.750Z,2.20
2019-06-01T08:48:23.892Z,2.60
2019-06-01T08:51:20.053Z,2.50
2019-06-01T08:54:16.291Z,2.80
2019-06-01T08:57:14.782Z,2.73
2019-06-01T09:00:12.607Z,2.53
2019-06-01T09:03:08.945Z,2.40
2019-06-01T09:06:04.442Z,2.40
2019-06-01T09:09:01.420Z,2.50
2019-06-01T09:11:59.177Z,2.30
2019-06-01T09:14:55.900Z,2.23
2019-06-01T09:17:53.424Z,2.50
2019-06-01T09:20:49.791Z,1.90
2019-06-01T09:23:45.283Z,1.63
2019-06-01T09:26:41.706Z,2.07
2019-06-01T09:29:37.208Z,2.00
2019-06-01T09:32:34.366Z,2.10
2019-06-01T09:35:49.025Z,1.97
2019-06-01T09:38:29.799Z,2.17
2019-06-01T09:41:26.424Z,1.90
2019-06-01T09:44:28.785Z,2.07
2019-06-01T09:47:29.041Z,2.40
2019-06-01T09:50:27.173Z,2.30
2019-06-01T09:53:22.960Z,1.97
2019-06-01T09:56:18.868Z,1.87
2019-06-01T09:59:15.219Z,1.67
2019-06-01T10:02:13.803Z,1.97
2019-06-01T10:05:10.177Z,1.80
2019-06-01T10:08:06.196Z,1.90
2019-06-01T10:11:02.719Z,2.30
2019-06-01T10:13:58.115Z,2.20
2019-06-01T10:16:54.489Z,1.47
2019-06-01T10:19:50.494Z,1.40
2019-06-01T10:22:47.496Z,1.30
2019-06-01T10:25:43.933Z,1.60
2019-06-01T10:28:41.927Z,1.50
2019-06-01T10:31:41.640Z,1.80
2019-06-01T10:34:39.926Z,1.70
2019-06-01T10:37:37.600Z,1.80
2019-06-01T10:40:35.342Z,1.73
2019-06-01T10:43:31.718Z,1.83
2019-06-01T10:46:29.719Z,2.10
2019-06-01T10:49:25.491Z,1.73
2019-06-01T10:52:21.973Z,1.77
2019-06-01T10:55:18.234Z,1.63
2019-06-01T10:58:13.814Z,1.93
2019-06-01T11:01:11.121Z,1.70
2019-06-01T11:04:06.775Z,2.00
2019-06-01T11:07:06.567Z,1.83
2019-06-01T11:10:02.597Z,1.43
2019-06-01T11:12:57.923Z,1.57
2019-06-01T11:15:54.752Z,1.30
2019-06-01T11:18:50.537Z,1.50
2019-06-01T11:21:46.372Z,1.50
2019-06-01T11:24:44.007Z,1.90
2019-06-01T11:27:39.831Z,1.90
2019-06-01T11:30:37.914Z,1.40
2019-06-01T11:33:38.157Z,1.40
2019-06-01T11:36:36.228Z,1.40
2019-06-01T11:39:34.732Z,1.80
2019-06-01T11:42:30.068Z,1.60
2019-06-01T11:45:26.361Z,2.00
2019-06-01T11:48:22.314Z,1.77
2019-06-01T11:51:20.139Z,1.53
2019-06-01T11:54:19.475Z,1.50
2019-06-01T11:57:15.688Z,1.60
2019-06-01T12:00:13.190Z,1.57
2019-06-01T12:03:10.266Z,1.57
2019-06-01T12:06:06.372Z,1.70
2019-06-01T12:09:06.043Z,1.50
2019-06-01T12:12:14.443Z,1.60
2019-06-01T12:15:12.396Z,1.80
2019-06-01T12:18:07.753Z,1.70
2019-06-01T12:21:04.717Z,1.70
2019-06-01T12:24:00.874Z,1.90
2019-06-01T12:26:57.160Z,1.77
2019-06-01T12:29:54.934Z,1.77
2019-06-01T12:32:51.650Z,1.63
2019-06-01T12:35:48.192Z,1.60
2019-06-01T12:38:53.930Z,1.83
2019-06-01T12:41:51.720Z,1.57
2019-06-01T12:44:48.244Z,1.60
2019-06-01T12:47:44.542Z,1.80
2019-06-01T12:50:42.110Z,2.00
2019-06-01T12:53:37.829Z,1.70
2019-06-01T12:56:33.338Z,1.80
2019-06-01T12:59:29.019Z,2.00
2019-06-01T13:02:25.626Z,1.90
2019-06-01T13:05:21.574Z,2.00
2019-06-01T13:08:17.036Z,1.80
2019-06-01T13:11:13.485Z,1.90
2019-06-01T13:14:11.128Z,1.80
2019-06-01T13:17:07.940Z,1.63
2019-06-01T13:20:04.254Z,1.63
2019-06-01T13:23:00.677Z,1.60
2019-06-01T13:25:55.998Z,1.60
2019-06-01T13:28:53.193Z,1.87
2019-06-01T13:31:50.506Z,1.87
2019-06-01T13:34:47.196Z,1.77
2019-06-01T13:37:44.497Z,1.63
2019-06-01T13:40:40.970Z,1.90
2019-06-01T13:43:36.921Z,1.70
2019-06-01T13:46:32.169Z,1.90
2019-06-01T13:49:28.592Z,1.60
2019-06-01T13:52:24.846Z,1.70
2019-06-01T13:55:21.649Z,2.00
2019-06-01T13:58:17.462Z,1.73
2019-06-01T14:01:16.583Z,1.60
2019-06-01T14:04:12.962Z,1.77
2019-06-01T14:07:09.726Z,1.80
2019-06-01T14:10:08.502Z,1.67
2019-06-01T14:13:05.469Z,1.60
2019-06-01T14:16:01.885Z,1.67
2019-06-01T14:18:57.428Z,1.80
2019-06-01T14:21:54.040Z,1.53
2019-06-01T14:25:04.310Z,1.70
2019-06-01T14:27:48.210Z,1.80
2019-06-01T14:30:44.570Z,2.00
2019-06-01T14:33:41.089Z,1.83
2019-06-01T14:36:37.529Z,1.77
2019-06-01T14:39:33.987Z,1.60
2019-06-01T14:42:31.781Z,1.67
2019-06-01T14:45:27.562Z,1.83
2019-06-01T14:48:25.712Z,1.93
2019-06-01T14:51:21.251Z,1.77
2019-06-01T14:54:16.424Z,2.03
2019-06-01T14:57:12.908Z,1.93
2019-06-01T15:00:12.512Z,2.00
2019-06-01T15:03:08.115Z,1.90
2019-06-01T15:06:04.456Z,1.93
2019-06-01T15:09:17.181Z,1.67
2019-06-01T15:11:58.857Z,1.80
2019-06-01T15:14:55.498Z,1.80
2019-06-01T15:17:53.336Z,1.80
2019-06-01T15:20:49.693Z,1.80
2019-06-01T15:23:44.951Z,1.73
2019-06-01T15:26:40.908Z,2.20
2019-06-01T15:29:37.344Z,1.80
2019-06-01T15:32:33.736Z,1.97
2019-06-01T15:35:30.339Z,1.70
2019-06-01T15:38:25.650Z,3.33
2019-06-01T15:41:20.871Z,2.37
2019-06-01T15:44:16.920Z,1.83
2019-06-01T15:47:13.984Z,1.90
2019-06-01T15:50:12.658Z,2.07
2019-06-01T15:53:08.542Z,1.80
2019-06-01T15:56:06.075Z,1.70
2019-06-01T15:59:02.836Z,1.90
2019-06-01T16:02:20.885Z,2.13
2019-06-01T16:05:18.439Z,1.87
2019-06-01T16:08:14.116Z,6.20
2019-06-01T16:11:10.475Z,1.80
2019-06-01T16:14:07.391Z,4.20
2019-06-01T16:17:04.754Z,2.50
2019-06-01T16:20:02.338Z,2.77
2019-06-01T16:22:58.585Z,1.70
2019-06-01T16:26:07.543Z,2.03
2019-06-01T16:28:52.385Z,2.00
2019-06-01T16:31:48.280Z,2.20
2019-06-01T16:34:44.864Z,2.47
2019-06-01T16:37:42.477Z,2.30
2019-06-01T16:40:38.280Z,4.13
2019-06-01T16:43:33.644Z,1.93
2019-06-01T16:46:30.051Z,6.23
2019-06-01T16:49:27.269Z,3.20
2019-06-01T16:52:23.036Z,2.00
2019-06-01T16:55:18.422Z,2.70
2019-06-01T16:58:17.564Z,2.60
2019-06-01T17:01:13.481Z,2.13
2019-06-01T17:04:11.253Z,2.53
2019-06-01T17:07:08.841Z,2.07
2019-06-01T17:10:21.592Z,2.40
2019-06-01T17:13:06.795Z,3.03
2019-06-01T17:16:05.157Z,3.63
2019-06-01T17:19:02.981Z,1.90
2019-06-01T17:21:59.380Z,2.20
2019-06-01T17:24:59.672Z,1.83
2019-06-01T17:27:59.774Z,1.90
2019-06-01T17:30:56.440Z,2.13
2019-06-01T17:33:52.852Z,2.27
2019-06-01T17:36:49.482Z,2.20
2019-06-01T17:39:46.123Z,2.30
2019-06-01T17:42:44.178Z,2.13
2019-06-01T17:45:40.894Z,2.20
2019-06-01T17:48:37.321Z,2.60
2019-06-01T17:51:33.728Z,2.63
2019-06-01T17:54:29.287Z,2.40
2019-06-01T17:57:24.861Z,3.50
2019-06-01T18:00:21.428Z,2.30
2019-06-01T18:03:17.851Z,2.43
2019-06-01T18:06:13.462Z,2.73
2019-06-01T18:09:12.274Z,2.70
2019-06-01T18:12:08.416Z,2.87
2019-06-01T18:15:04.535Z,3.10
2019-06-01T18:18:04.428Z,2.73
2019-06-01T18:21:02.773Z,2.97
2019-06-01T18:23:58.251Z,2.83
2019-06-01T18:26:54.749Z,2.90
2019-06-01T18:29:50.832Z,3.10
2019-06-01T18:32:46.436Z,2.90
2019-06-01T18:35:42.972Z,2.97
2019-06-01T18:38:40.829Z,2.77
2019-06-01T18:41:40.705Z,2.60
2019-06-01T18:44:43.775Z,2.60
2019-06-01T18:47:47.529Z,2.60
2019-06-01T18:50:44.554Z,2.63
2019-06-01T18:53:41.698Z,2.70
2019-06-01T18:56:37.831Z,3.83
2019-06-01T18:59:33.943Z,4.30
2019-06-01T19:02:30.621Z,4.20
2019-06-01T19:05:27.184Z,5.40
2019-06-01T19:08:27.172Z,5.00
2019-06-01T19:11:32.789Z,5.43
2019-06-01T19:14:21.462Z,5.93
2019-06-01T19:17:32.476Z,5.70
2019-06-01T19:20:28.970Z,6.73
2019-06-01T19:23:24.698Z,7.10
2019-06-01T19:26:21.455Z,6.30
2019-06-01T19:29:17.008Z,7.00
2019-06-01T19:32:14.952Z,6.73
2019-06-01T19:35:13.303Z,6.73
2019-06-01T19:38:09.283Z,7.13
2019-06-01T19:41:07.385Z,7.03
2019-06-01T19:44:03.537Z,6.77
2019-06-01T19:46:59.214Z,6.20
2019-06-01T19:49:55.807Z,5.83
2019-06-01T19:52:52.557Z,6.50
2019-06-01T19:55:50.046Z,6.23
2019-06-01T19:58:47.976Z,5.87
2019-06-01T20:01:44.663Z,6.40
2019-06-01T20:04:40.984Z,6.20
2019-06-01T20:07:37.210Z,6.63
2019-06-01T20:10:38.026Z,5.87
2019-06-01T20:13:34.437Z,6.13
2019-06-01T20:16:30.158Z,6.80
2019-06-01T20:19:26.653Z,6.20
2019-06-01T20:22:36.625Z,6.47
2019-06-01T20:25:32.946Z,6.37
2019-06-01T20:28:28.822Z,6.07
2019-06-01T20:31:24.222Z,6.63
2019-06-01T20:34:22.104Z,6.43
2019-06-01T20:37:20.061Z,6.97
2019-06-01T20:40:18.430Z,6.67
2019-06-01T20:43:14.679Z,7.17
2019-06-01T20:46:10.622Z,5.90
2019-06-01T20:49:06.094Z,5.90
2019-06-01T20:52:02.259Z,6.33
2019-06-01T20:54:58.523Z,6.83
2019-06-01T20:57:54.577Z,7.70
2019-06-01T21:00:51.116Z,6.37
2019-06-01T21:03:49.626Z,6.87
2019-06-01T21:06:45.254Z,6.70
2019-06-01T21:09:40.427Z,6.50
2019-06-01T21:12:46.221Z,6.27
2019-06-01T21:15:35.913Z,6.37
2019-06-01T21:18:33.725Z,5.93
2019-06-01T21:21:30.277Z,6.07
2019-06-01T21:24:27.060Z,6.93
2019-06-01T21:27:22.795Z,9.27
2019-06-01T21:30:21.037Z,8.83
2019-06-01T21:33:16.965Z,5.70
2019-06-01T21:36:13.269Z,5.33
2019-06-01T21:39:09.366Z,5.73
2019-06-01T21:42:05.910Z,5.50
2019-06-01T21:45:02.624Z,5.40
2019-06-01T21:48:00.642Z,5.50
2019-06-01T21:50:56.534Z,8.47
2019-06-01T21:53:53.474Z,6.87
2019-06-01T21:56:51.570Z,5.57
2019-06-01T21:59:47.046Z,5.50
2019-06-01T22:02:43.558Z,6.03
2019-06-01T22:05:38.974Z,5.87
2019-06-01T22:08:34.735Z,6.10
2019-06-01T22:11:30.011Z,5.83
2019-06-01T22:14:26.284Z,5.67
2019-06-01T22:17:23.719Z,6.27
2019-06-01T22:20:19.911Z,6.07
2019-06-01T22:23:15.259Z,5.67
2019-06-01T22:26:10.699Z,5.70
2019-06-01T22:29:07.758Z,5.37
2019-06-01T22:32:04.019Z,5.10
2019-06-01T22:35:00.219Z,5.13
2019-06-01T22:37:56.715Z,5.90
2019-06-01T22:40:51.883Z,5.30
2019-06-01T22:43:48.356Z,5.70
2019-06-01T22:46:44.836Z,5.27
2019-06-01T22:49:42.112Z,5.60
2019-06-01T22:52:38.479Z,5.50
2019-06-01T22:55:35.031Z,5.80
2019-06-01T22:58:31.635Z,5.07
2019-06-01T23:01:28.817Z,5.07
2019-06-01T23:04:25.026Z,5.17
2019-06-01T23:07:21.374Z,4.87
2019-06-01T23:10:17.071Z,5.10
2019-06-01T23:13:12.787Z,5.20
2019-06-01T23:16:08.239Z,4.73
2019-06-01T23:19:04.045Z,4.13
2019-06-01T23:22:04.445Z,5.47
2019-06-01T23:25:03.178Z,5.50
2019-06-01T23:27:59.821Z,5.60
2019-06-01T23:30:56.244Z,5.60
2019-06-01T23:33:52.341Z,5.77
2019-06-01T23:36:48.779Z,5.53
2019-06-01T23:39:45.390Z,6.90
2019-06-01T23:42:41.871Z,6.40
2019-06-01T23:45:38.223Z,6.70
2019-06-01T23:48:34.576Z,6.30
2019-06-01T23:51:31.891Z,5.80
2019-06-01T23:54:29.352Z,5.63
2019-06-01T23:57:25.717Z,5.57
